sensor_id;sensor_type;location;lat;lon;timestamp;pressure;altitude;pressure_sealevel;temperature;humidity
6393;BME280;3229;42.674;23.282;2023-05-22T00:02:10;94389.94;;;17.81;57.00
6393;BME280;3229;42.674;23.282;2023-05-22T00:04:36;94394.75;;;17.84;57.10
6393;BME280;3229;42.674;23.282;2023-05-22T00:07:04;94385.56;;;17.82;57.22
6393;BME280;3229;42.674;23.282;2023-05-22T00:09:33;94370.81;;;17.75;57.13
6393;BME280;3229;42.674;23.282;2023-05-22T00:12:00;94386.78;;;17.86;57.39
6393;BME280;3229;42.674;23.282;2023-05-22T00:14:27;94391.59;;;17.89;57.33
6393;BME280;3229;42.674;23.282;2023-05-22T00:16:53;94384.84;;;17.88;57.32
6393;BME280;3229;42.674;23.282;2023-05-22T00:19:22;94392.81;;;17.93;57.45
6393;BME280;3229;42.674;23.282;2023-05-22T00:21:49;94373.66;;;17.87;57.24
6393;BME280;3229;42.674;23.282;2023-05-22T00:24:16;94394.03;;;17.97;57.45
6393;BME280;3229;42.674;23.282;2023-05-22T00:26:45;94388.66;;;17.98;57.54
6393;BME280;3229;42.674;23.282;2023-05-22T00:29:12;94393.63;;;18.00;57.41
6393;BME280;3229;42.674;23.282;2023-05-22T00:31:39;94397.66;;;18.02;57.33
6393;BME280;3229;42.674;23.282;2023-05-22T00:34:05;94392.28;;;18.04;57.33
6393;BME280;3229;42.674;23.282;2023-05-22T00:36:32;94392.09;;;18.05;57.52
6393;BME280;3229;42.674;23.282;2023-05-22T00:38:59;94372.91;;;17.93;57.42
6393;BME280;3229;42.674;23.282;2023-05-22T00:41:26;94383.72;;;18.03;57.60
6393;BME280;3229;42.674;23.282;2023-05-22T00:43:54;94391.47;;;18.03;57.47
6393;BME280;3229;42.674;23.282;2023-05-22T00:46:21;94398.50;;;18.10;57.28
6393;BME280;3229;42.674;23.282;2023-05-22T00:48:48;94398.66;;;18.08;57.35
6393;BME280;3229;42.674;23.282;2023-05-22T00:51:17;94381.91;;;17.97;57.59
6393;BME280;3229;42.674;23.282;2023-05-22T00:53:45;94396.06;;;18.08;57.55
6393;BME280;3229;42.674;23.282;2023-05-22T00:56:13;94382.91;;;17.96;57.60
6393;BME280;3229;42.674;23.282;2023-05-22T00:58:40;94352.75;;;17.82;57.66
6393;BME280;3229;42.674;23.282;2023-05-22T01:01:10;94389.31;;;18.07;57.59
6393;BME280;3229;42.674;23.282;2023-05-22T01:03:38;94386.72;;;18.07;57.52
6393;BME280;3229;42.674;23.282;2023-05-22T01:06:09;94384.69;;;18.02;57.78
6393;BME280;3229;42.674;23.282;2023-05-22T01:08:36;94394.47;;;18.07;57.73
6393;BME280;3229;42.674;23.282;2023-05-22T01:11:08;94389.31;;;18.07;57.74
6393;BME280;3229;42.674;23.282;2023-05-22T01:13:44;94397.88;;;18.08;57.69
6393;BME280;3229;42.674;23.282;2023-05-22T01:16:24;94398.06;;;18.06;57.82
6393;BME280;3229;42.674;23.282;2023-05-22T01:18:59;94397.06;;;18.07;57.96
6393;BME280;3229;42.674;23.282;2023-05-22T01:21:35;94391.31;;;18.05;57.74
6393;BME280;3229;42.674;23.282;2023-05-22T01:24:19;94393.06;;;18.04;57.93
6393;BME280;3229;42.674;23.282;2023-05-22T01:27:18;94387.09;;;18.04;57.90
6393;BME280;3229;42.674;23.282;2023-05-22T01:30:02;94394.25;;;18.02;58.14
6393;BME280;3229;42.674;23.282;2023-05-22T01:32:36;94383.69;;;17.97;58.19
6393;BME280;3229;42.674;23.282;2023-05-22T01:35:06;94354.31;;;17.76;58.13
6393;BME280;3229;42.674;23.282;2023-05-22T01:37:35;94381.47;;;17.94;58.20
6393;BME280;3229;42.674;23.282;2023-05-22T01:40:05;94378.47;;;17.90;58.42
6393;BME280;3229;42.674;23.282;2023-05-22T01:42:33;94377.25;;;17.86;58.58
6393;BME280;3229;42.674;23.282;2023-05-22T01:45:01;94382.63;;;17.85;58.58
6393;BME280;3229;42.674;23.282;2023-05-22T01:47:28;94381.41;;;17.80;58.58
6393;BME280;3229;42.674;23.282;2023-05-22T01:49:56;94380.97;;;17.77;58.75
6393;BME280;3229;42.674;23.282;2023-05-22T01:52:28;94367.31;;;17.62;58.76
6393;BME280;3229;42.674;23.282;2023-05-22T01:55:02;94379.28;;;17.69;58.98
6393;BME280;3229;42.674;23.282;2023-05-22T01:57:34;94378.88;;;17.66;59.09
6393;BME280;3229;42.674;23.282;2023-05-22T02:00:06;94383.63;;;17.62;59.17
6393;BME280;3229;42.674;23.282;2023-05-22T02:02:35;94378.84;;;17.59;59.29
6393;BME280;3229;42.674;23.282;2023-05-22T02:05:09;94382.00;;;17.54;59.46
6393;BME280;3229;42.674;23.282;2023-05-22T02:07:38;94382.34;;;17.51;59.45
6393;BME280;3229;42.674;23.282;2023-05-22T02:10:07;94380.13;;;17.48;59.66
6393;BME280;3229;42.674;23.282;2023-05-22T02:12:35;94356.16;;;17.33;59.73
6393;BME280;3229;42.674;23.282;2023-05-22T02:15:04;94377.09;;;17.38;59.85
6393;BME280;3229;42.674;23.282;2023-05-22T02:17:36;94384.84;;;17.38;59.91
6393;BME280;3229;42.674;23.282;2023-05-22T02:20:09;94379.44;;;17.33;60.01
6393;BME280;3229;42.674;23.282;2023-05-22T02:22:40;94358.81;;;17.18;60.11
6393;BME280;3229;42.674;23.282;2023-05-22T02:25:09;94373.41;;;17.26;60.27
6393;BME280;3229;42.674;23.282;2023-05-22T02:27:39;94374.41;;;17.25;60.19
6393;BME280;3229;42.674;23.282;2023-05-22T02:30:08;94381.56;;;17.23;60.29
6393;BME280;3229;42.674;23.282;2023-05-22T02:32:35;94379.31;;;17.20;60.25
6393;BME280;3229;42.674;23.282;2023-05-22T02:35:02;94378.09;;;17.16;60.57
6393;BME280;3229;42.674;23.282;2023-05-22T02:37:30;94376.66;;;17.13;60.68
6393;BME280;3229;42.674;23.282;2023-05-22T02:39:57;94377.88;;;17.11;60.85
6393;BME280;3229;42.674;23.282;2023-05-22T02:42:25;94309.00;;;16.60;60.99
6393;BME280;3229;42.674;23.282;2023-05-22T02:44:52;94373.06;;;17.08;61.00
6393;BME280;3229;42.674;23.282;2023-05-22T02:47:18;94381.16;;;17.04;60.90
6393;BME280;3229;42.674;23.282;2023-05-22T02:49:46;94380.72;;;17.01;61.07
6393;BME280;3229;42.674;23.282;2023-05-22T02:52:12;94375.75;;;16.99;61.31
6393;BME280;3229;42.674;23.282;2023-05-22T02:54:41;94377.75;;;16.97;61.19
6393;BME280;3229;42.674;23.282;2023-05-22T02:57:07;94367.97;;;16.93;61.26
6393;BME280;3229;42.674;23.282;2023-05-22T02:59:34;94351.16;;;16.82;61.25
6393;BME280;3229;42.674;23.282;2023-05-22T03:02:02;94361.97;;;16.92;61.31
6393;BME280;3229;42.674;23.282;2023-05-22T03:04:28;94369.91;;;16.91;61.24
6393;BME280;3229;42.674;23.282;2023-05-22T03:06:55;94372.50;;;16.91;61.56
6393;BME280;3229;42.674;23.282;2023-05-22T03:09:22;94377.84;;;16.89;61.29
6393;BME280;3229;42.674;23.282;2023-05-22T03:11:50;94361.50;;;16.82;61.57
6393;BME280;3229;42.674;23.282;2023-05-22T03:14:17;94365.31;;;16.86;61.48
6393;BME280;3229;42.674;23.282;2023-05-22T03:16:44;94368.88;;;16.85;61.58
6393;BME280;3229;42.674;23.282;2023-05-22T03:19:12;94380.25;;;16.91;61.60
6393;BME280;3229;42.674;23.282;2023-05-22T03:21:39;94386.22;;;16.91;61.65
6393;BME280;3229;42.674;23.282;2023-05-22T03:24:08;94375.28;;;16.89;61.47
6393;BME280;3229;42.674;23.282;2023-05-22T03:26:35;94373.94;;;16.93;61.66
6393;BME280;3229;42.674;23.282;2023-05-22T03:29:03;94376.94;;;16.97;61.60
6393;BME280;3229;42.674;23.282;2023-05-22T03:31:32;94375.75;;;16.99;61.42
6393;BME280;3229;42.674;23.282;2023-05-22T03:33:59;94383.94;;;17.03;61.46
6393;BME280;3229;42.674;23.282;2023-05-22T03:36:26;94382.59;;;17.07;61.55
6393;BME280;3229;42.674;23.282;2023-05-22T03:38:54;94377.88;;;17.11;61.34
6393;BME280;3229;42.674;23.282;2023-05-22T03:41:20;94374.09;;;17.13;61.37
6393;BME280;3229;42.674;23.282;2023-05-22T03:43:47;94377.53;;;17.20;61.46
6393;BME280;3229;42.674;23.282;2023-05-22T03:46:15;94379.38;;;17.26;61.29
6393;BME280;3229;42.674;23.282;2023-05-22T03:48:42;94383.00;;;17.32;61.30
6393;BME280;3229;42.674;23.282;2023-05-22T03:51:09;94382.25;;;17.38;61.03
6393;BME280;3229;42.674;23.282;2023-05-22T03:53:36;94385.88;;;17.44;61.00
6393;BME280;3229;42.674;23.282;2023-05-22T03:56:03;94379.97;;;17.50;61.04
6393;BME280;3229;42.674;23.282;2023-05-22T03:58:30;94379.41;;;17.54;60.87
6393;BME280;3229;42.674;23.282;2023-05-22T04:00:56;94379.03;;;17.58;60.79
6393;BME280;3229;42.674;23.282;2023-05-22T04:03:26;94383.06;;;17.67;60.77
6393;BME280;3229;42.674;23.282;2023-05-22T04:05:53;94360.09;;;17.57;60.65
6393;BME280;3229;42.674;23.282;2023-05-22T04:08:21;94386.56;;;17.80;60.75
6393;BME280;3229;42.674;23.282;2023-05-22T04:10:48;94392.59;;;17.88;60.47
6393;BME280;3229;42.674;23.282;2023-05-22T04:13:16;94373.06;;;17.85;60.47
6393;BME280;3229;42.674;23.282;2023-05-22T04:15:44;94389.88;;;18.02;60.50
6393;BME280;3229;42.674;23.282;2023-05-22T04:18:11;94354.75;;;17.87;60.30
6393;BME280;3229;42.674;23.282;2023-05-22T04:20:40;94386.19;;;18.18;60.31
6393;BME280;3229;42.674;23.282;2023-05-22T04:23:08;94357.69;;;18.12;60.03
6393;BME280;3229;42.674;23.282;2023-05-22T04:25:35;94377.28;;;18.34;60.01
6393;BME280;3229;42.674;23.282;2023-05-22T04:28:02;94385.31;;;18.46;59.93
6393;BME280;3229;42.674;23.282;2023-05-22T04:30:30;94382.94;;;18.51;59.80
6393;BME280;3229;42.674;23.282;2023-05-22T04:32:59;94390.56;;;18.66;59.61
6393;BME280;3229;42.674;23.282;2023-05-22T04:35:27;94390.22;;;18.75;59.42
6393;BME280;3229;42.674;23.282;2023-05-22T04:37:56;94392.63;;;18.90;59.27
6393;BME280;3229;42.674;23.282;2023-05-22T04:40:26;94393.06;;;19.07;59.04
6393;BME280;3229;42.674;23.282;2023-05-22T04:42:53;94394.09;;;19.26;58.77
6393;BME280;3229;42.674;23.282;2023-05-22T04:45:24;94401.88;;;19.46;58.41
6393;BME280;3229;42.674;23.282;2023-05-22T04:47:50;94403.09;;;19.63;58.25
6393;BME280;3229;42.674;23.282;2023-05-22T04:50:18;94400.28;;;19.85;57.95
6393;BME280;3229;42.674;23.282;2023-05-22T04:52:45;94402.25;;;20.09;57.55
6393;BME280;3229;42.674;23.282;2023-05-22T04:55:13;94398.78;;;20.35;57.21
6393;BME280;3229;42.674;23.282;2023-05-22T04:57:40;94392.53;;;20.56;57.21
6393;BME280;3229;42.674;23.282;2023-05-22T05:00:09;94393.19;;;20.83;66.89
6393;BME280;3229;42.674;23.282;2023-05-22T05:02:38;94392.81;;;21.11;68.94
6393;BME280;3229;42.674;23.282;2023-05-22T05:05:06;94400.97;;;21.53;68.77
6393;BME280;3229;42.674;23.282;2023-05-22T05:07:36;94400.16;;;22.02;68.65
6393;BME280;3229;42.674;23.282;2023-05-22T05:10:03;94403.72;;;22.63;67.44
6393;BME280;3229;42.674;23.282;2023-05-22T05:12:32;94402.63;;;23.31;65.70
6393;BME280;3229;42.674;23.282;2023-05-22T05:14:58;94406.69;;;24.04;63.81
6393;BME280;3229;42.674;23.282;2023-05-22T05:17:25;94411.38;;;24.77;61.48
6393;BME280;3229;42.674;23.282;2023-05-22T05:19:53;94408.63;;;25.41;58.98
6393;BME280;3229;42.674;23.282;2023-05-22T05:22:19;94414.75;;;25.97;57.20
6393;BME280;3229;42.674;23.282;2023-05-22T05:24:47;94412.59;;;26.50;55.19
6393;BME280;3229;42.674;23.282;2023-05-22T05:27:13;94407.69;;;27.02;54.04
6393;BME280;3229;42.674;23.282;2023-05-22T05:29:42;94408.19;;;27.54;52.52
6393;BME280;3229;42.674;23.282;2023-05-22T05:32:09;94399.06;;;27.93;51.62
6393;BME280;3229;42.674;23.282;2023-05-22T05:34:37;94408.03;;;28.40;50.57
6393;BME280;3229;42.674;23.282;2023-05-22T05:37:04;94426.91;;;28.84;49.53
6393;BME280;3229;42.674;23.282;2023-05-22T05:39:31;94418.88;;;29.21;48.25
6393;BME280;3229;42.674;23.282;2023-05-22T05:41:58;94414.72;;;29.56;47.39
6393;BME280;3229;42.674;23.282;2023-05-22T05:44:25;94423.19;;;29.89;47.06
6393;BME280;3229;42.674;23.282;2023-05-22T05:46:53;94425.53;;;30.16;45.95
6393;BME280;3229;42.674;23.282;2023-05-22T05:49:20;94423.09;;;30.45;45.34
6393;BME280;3229;42.674;23.282;2023-05-22T05:51:47;94423.28;;;30.74;44.66
6393;BME280;3229;42.674;23.282;2023-05-22T05:54:14;94432.41;;;31.02;43.85
6393;BME280;3229;42.674;23.282;2023-05-22T05:56:41;94431.22;;;31.29;43.08
6393;BME280;3229;42.674;23.282;2023-05-22T05:59:08;94427.38;;;31.50;42.75
6393;BME280;3229;42.674;23.282;2023-05-22T06:01:36;94427.50;;;31.69;42.32
6393;BME280;3229;42.674;23.282;2023-05-22T06:04:05;94419.97;;;31.91;41.53
6393;BME280;3229;42.674;23.282;2023-05-22T06:06:32;94422.63;;;32.15;41.24
6393;BME280;3229;42.674;23.282;2023-05-22T06:09:00;94426.41;;;32.38;40.79
6393;BME280;3229;42.674;23.282;2023-05-22T06:11:27;94427.81;;;32.55;40.54
6393;BME280;3229;42.674;23.282;2023-05-22T06:13:54;94426.94;;;32.64;40.05
6393;BME280;3229;42.674;23.282;2023-05-22T06:16:21;94431.88;;;32.71;39.83
6393;BME280;3229;42.674;23.282;2023-05-22T06:18:48;94426.25;;;32.78;39.49
6393;BME280;3229;42.674;23.282;2023-05-22T06:21:18;94429.91;;;32.82;39.09
6393;BME280;3229;42.674;23.282;2023-05-22T06:23:46;94431.72;;;32.86;38.64
6393;BME280;3229;42.674;23.282;2023-05-22T06:26:14;94428.53;;;32.84;38.88
6393;BME280;3229;42.674;23.282;2023-05-22T06:28:42;94420.56;;;32.65;38.65
6393;BME280;3229;42.674;23.282;2023-05-22T06:31:09;94425.28;;;32.44;38.81
6393;BME280;3229;42.674;23.282;2023-05-22T06:33:36;94430.53;;;32.20;38.36
6393;BME280;3229;42.674;23.282;2023-05-22T06:36:05;94423.66;;;31.90;38.72
6393;BME280;3229;42.674;23.282;2023-05-22T06:38:34;94432.59;;;31.65;39.00
6393;BME280;3229;42.674;23.282;2023-05-22T06:41:02;94427.97;;;31.42;39.52
6393;BME280;3229;42.674;23.282;2023-05-22T06:43:29;94424.38;;;31.17;39.57
6393;BME280;3229;42.674;23.282;2023-05-22T06:45:56;94429.25;;;30.95;39.89
6393;BME280;3229;42.674;23.282;2023-05-22T06:48:22;94427.53;;;30.75;40.36
6393;BME280;3229;42.674;23.282;2023-05-22T06:50:49;94426.44;;;30.71;40.36
6393;BME280;3229;42.674;23.282;2023-05-22T06:53:16;94427.75;;;30.68;40.08
6393;BME280;3229;42.674;23.282;2023-05-22T06:55:44;94425.41;;;30.72;40.11
6393;BME280;3229;42.674;23.282;2023-05-22T06:58:11;94426.16;;;30.78;40.04
6393;BME280;3229;42.674;23.282;2023-05-22T07:00:37;94427.66;;;30.99;39.65
6393;BME280;3229;42.674;23.282;2023-05-22T07:03:04;94425.41;;;31.21;39.34
6393;BME280;3229;42.674;23.282;2023-05-22T07:05:31;94428.59;;;31.29;39.09
6393;BME280;3229;42.674;23.282;2023-05-22T07:07:58;94424.53;;;31.41;38.70
6393;BME280;3229;42.674;23.282;2023-05-22T07:10:25;94420.16;;;31.66;38.34
6393;BME280;3229;42.674;23.282;2023-05-22T07:12:54;94421.81;;;31.91;37.64
6393;BME280;3229;42.674;23.282;2023-05-22T07:15:20;94425.84;;;32.12;37.48
6393;BME280;3229;42.674;23.282;2023-05-22T07:17:47;94421.53;;;32.21;36.76
6393;BME280;3229;42.674;23.282;2023-05-22T07:20:14;94425.03;;;32.17;36.46
6393;BME280;3229;42.674;23.282;2023-05-22T07:22:42;94412.16;;;32.05;36.39
6393;BME280;3229;42.674;23.282;2023-05-22T07:25:09;94404.28;;;32.00;36.53
6393;BME280;3229;42.674;23.282;2023-05-22T07:27:35;94414.53;;;32.07;36.41
6393;BME280;3229;42.674;23.282;2023-05-22T07:30:05;94422.94;;;32.14;36.49
6393;BME280;3229;42.674;23.282;2023-05-22T07:32:32;94421.56;;;32.16;36.29
6393;BME280;3229;42.674;23.282;2023-05-22T07:34:59;94417.88;;;32.17;36.15
6393;BME280;3229;42.674;23.282;2023-05-22T07:37:26;94421.56;;;32.16;36.32
6393;BME280;3229;42.674;23.282;2023-05-22T07:39:52;94397.91;;;32.01;36.10
6393;BME280;3229;42.674;23.282;2023-05-22T07:42:19;94414.81;;;32.05;36.30
6393;BME280;3229;42.674;23.282;2023-05-22T07:44:46;94387.25;;;31.77;36.45
6393;BME280;3229;42.674;23.282;2023-05-22T07:47:14;94412.59;;;31.88;36.17
6393;BME280;3229;42.674;23.282;2023-05-22T07:49:41;94410.13;;;31.97;36.44
6393;BME280;3229;42.674;23.282;2023-05-22T07:52:08;94407.38;;;32.07;36.02
6393;BME280;3229;42.674;23.282;2023-05-22T07:54:35;94411.63;;;32.08;35.90
6393;BME280;3229;42.674;23.282;2023-05-22T07:57:01;94409.53;;;32.05;35.75
6393;BME280;3229;42.674;23.282;2023-05-22T07:59:28;94408.75;;;32.05;35.86
6393;BME280;3229;42.674;23.282;2023-05-22T08:01:55;94402.78;;;32.18;35.75
6393;BME280;3229;42.674;23.282;2023-05-22T08:04:23;94413.44;;;32.37;35.84
6393;BME280;3229;42.674;23.282;2023-05-22T08:06:50;94407.78;;;32.49;35.41
6393;BME280;3229;42.674;23.282;2023-05-22T08:09:17;94417.47;;;32.58;35.15
6393;BME280;3229;42.674;23.282;2023-05-22T08:11:45;94410.81;;;32.61;34.88
6393;BME280;3229;42.674;23.282;2023-05-22T08:14:12;94409.75;;;32.62;35.01
6393;BME280;3229;42.674;23.282;2023-05-22T08:16:39;94414.69;;;32.68;35.03
6393;BME280;3229;42.674;23.282;2023-05-22T08:19:05;94408.81;;;32.71;34.86
6393;BME280;3229;42.674;23.282;2023-05-22T08:21:34;94411.69;;;32.75;34.76
6393;BME280;3229;42.674;23.282;2023-05-22T08:24:01;94405.56;;;32.80;34.78
6393;BME280;3229;42.674;23.282;2023-05-22T08:26:28;94410.13;;;32.74;34.79
6393;BME280;3229;42.674;23.282;2023-05-22T08:28:55;94410.69;;;32.71;34.72
6393;BME280;3229;42.674;23.282;2023-05-22T08:31:22;94407.75;;;32.72;34.79
6393;BME280;3229;42.674;23.282;2023-05-22T08:33:48;94409.22;;;32.60;35.00
6393;BME280;3229;42.674;23.282;2023-05-22T08:36:15;94409.66;;;32.48;35.03
6393;BME280;3229;42.674;23.282;2023-05-22T08:38:43;94395.09;;;32.45;34.92
6393;BME280;3229;42.674;23.282;2023-05-22T08:41:10;94407.72;;;32.54;35.03
6393;BME280;3229;42.674;23.282;2023-05-22T08:43:38;94415.66;;;32.54;35.30
6393;BME280;3229;42.674;23.282;2023-05-22T08:46:06;94416.75;;;32.53;35.06
6393;BME280;3229;42.674;23.282;2023-05-22T08:48:33;94413.31;;;32.52;34.88
6393;BME280;3229;42.674;23.282;2023-05-22T08:51:02;94410.69;;;32.47;34.97
6393;BME280;3229;42.674;23.282;2023-05-22T08:53:33;94403.41;;;32.39;34.94
6393;BME280;3229;42.674;23.282;2023-05-22T08:56:04;94399.53;;;32.26;34.46
6393;BME280;3229;42.674;23.282;2023-05-22T08:58:32;94401.34;;;32.02;34.60
6393;BME280;3229;42.674;23.282;2023-05-22T09:01:00;94394.16;;;31.73;34.75
6393;BME280;3229;42.674;23.282;2023-05-22T09:03:28;94391.09;;;31.61;35.03
6393;BME280;3229;42.674;23.282;2023-05-22T09:05:57;94384.78;;;31.57;34.94
6393;BME280;3229;42.674;23.282;2023-05-22T09:08:24;94393.69;;;31.66;35.36
6393;BME280;3229;42.674;23.282;2023-05-22T09:10:51;94393.13;;;31.69;34.90
6393;BME280;3229;42.674;23.282;2023-05-22T09:13:27;94409.53;;;31.71;35.01
6393;BME280;3229;42.674;23.282;2023-05-22T09:15:57;94396.59;;;31.69;35.25
6393;BME280;3229;42.674;23.282;2023-05-22T09:18:26;94391.59;;;31.63;34.84
6393;BME280;3229;42.674;23.282;2023-05-22T09:20:56;94387.19;;;31.53;34.92
6393;BME280;3229;42.674;23.282;2023-05-22T09:23:25;94392.59;;;31.38;35.18
6393;BME280;3229;42.674;23.282;2023-05-22T09:25:53;94357.13;;;30.99;35.41
6393;BME280;3229;42.674;23.282;2023-05-22T09:28:21;94392.03;;;30.96;35.42
6393;BME280;3229;42.674;23.282;2023-05-22T09:30:49;94401.84;;;30.86;35.49
6393;BME280;3229;42.674;23.282;2023-05-22T09:33:17;94375.25;;;30.67;35.66
6393;BME280;3229;42.674;23.282;2023-05-22T09:35:45;94391.88;;;30.72;35.40
6393;BME280;3229;42.674;23.282;2023-05-22T09:38:13;94354.75;;;30.43;35.92
6393;BME280;3229;42.674;23.282;2023-05-22T09:40:40;94360.84;;;30.34;35.89
6393;BME280;3229;42.674;23.282;2023-05-22T09:43:07;94398.06;;;30.37;36.13
6393;BME280;3229;42.674;23.282;2023-05-22T09:45:34;94390.97;;;30.22;36.63
6393;BME280;3229;42.674;23.282;2023-05-22T09:48:03;94390.19;;;30.07;37.26
6393;BME280;3229;42.674;23.282;2023-05-22T09:50:30;94392.81;;;29.91;37.30
6393;BME280;3229;42.674;23.282;2023-05-22T09:53:00;94389.16;;;29.72;37.70
6393;BME280;3229;42.674;23.282;2023-05-22T09:55:27;94373.34;;;29.41;38.01
6393;BME280;3229;42.674;23.282;2023-05-22T09:57:55;94367.75;;;29.22;38.43
6393;BME280;3229;42.674;23.282;2023-05-22T10:00:23;94392.25;;;29.18;38.81
6393;BME280;3229;42.674;23.282;2023-05-22T10:02:53;94397.50;;;29.03;38.73
6393;BME280;3229;42.674;23.282;2023-05-22T10:05:29;94395.59;;;28.88;38.90
6393;BME280;3229;42.674;23.282;2023-05-22T10:08:01;94398.69;;;28.74;39.59
6393;BME280;3229;42.674;23.282;2023-05-22T10:10:28;94391.56;;;28.60;39.74
6393;BME280;3229;42.674;23.282;2023-05-22T10:12:56;94400.22;;;28.50;40.04
6393;BME280;3229;42.674;23.282;2023-05-22T10:15:23;94394.63;;;28.41;40.12
6393;BME280;3229;42.674;23.282;2023-05-22T10:17:51;94394.59;;;28.36;40.20
6393;BME280;3229;42.674;23.282;2023-05-22T10:20:18;94400.06;;;28.30;40.54
6393;BME280;3229;42.674;23.282;2023-05-22T10:22:47;94397.13;;;28.21;40.81
6393;BME280;3229;42.674;23.282;2023-05-22T10:25:15;94396.25;;;28.10;41.27
6393;BME280;3229;42.674;23.282;2023-05-22T10:27:43;94370.56;;;27.80;41.01
6393;BME280;3229;42.674;23.282;2023-05-22T10:30:19;94394.75;;;27.77;41.81
6393;BME280;3229;42.674;23.282;2023-05-22T10:32:52;94392.47;;;27.59;42.17
6393;BME280;3229;42.674;23.282;2023-05-22T10:35:26;94398.88;;;27.41;42.48
6393;BME280;3229;42.674;23.282;2023-05-22T10:38:05;94394.78;;;27.23;43.08
6393;BME280;3229;42.674;23.282;2023-05-22T10:40:37;94404.56;;;27.06;43.31
6393;BME280;3229;42.674;23.282;2023-05-22T10:43:04;94410.69;;;26.89;43.23
6393;BME280;3229;42.674;23.282;2023-05-22T10:45:30;94432.78;;;26.71;43.51
6393;BME280;3229;42.674;23.282;2023-05-22T10:48:01;94448.06;;;26.52;43.96
6393;BME280;3229;42.674;23.282;2023-05-22T10:50:28;94450.94;;;26.34;44.64
6393;BME280;3229;42.674;23.282;2023-05-22T10:53:21;94426.25;;;26.13;45.00
6393;BME280;3229;42.674;23.282;2023-05-22T10:55:49;94423.00;;;26.06;45.44
6393;BME280;3229;42.674;23.282;2023-05-22T10:58:16;94420.31;;;26.01;45.47
6393;BME280;3229;42.674;23.282;2023-05-22T11:00:43;94421.56;;;25.98;45.99
6393;BME280;3229;42.674;23.282;2023-05-22T11:03:10;94421.56;;;25.98;45.79
6393;BME280;3229;42.674;23.282;2023-05-22T11:05:37;94376.25;;;25.81;46.06
6393;BME280;3229;42.674;23.282;2023-05-22T11:11:12;94416.22;;;26.27;46.11
6393;BME280;3229;42.674;23.282;2023-05-22T11:13:38;94406.63;;;26.38;45.68
6393;BME280;3229;42.674;23.282;2023-05-22T11:16:08;94405.47;;;26.45;45.55
6393;BME280;3229;42.674;23.282;2023-05-22T11:18:36;94402.06;;;26.67;45.37
6393;BME280;3229;42.674;23.282;2023-05-22T11:21:03;94368.69;;;26.62;45.55
6393;BME280;3229;42.674;23.282;2023-05-22T11:23:33;94390.47;;;26.90;45.25
6393;BME280;3229;42.674;23.282;2023-05-22T11:26:21;94385.53;;;26.93;45.11
6393;BME280;3229;42.674;23.282;2023-05-22T11:28:50;94384.22;;;26.91;45.58
6393;BME280;3229;42.674;23.282;2023-05-22T11:31:19;94377.22;;;26.74;45.69
6393;BME280;3229;42.674;23.282;2023-05-22T11:33:47;94383.28;;;26.53;45.95
6393;BME280;3229;42.674;23.282;2023-05-22T11:36:15;94437.38;;;26.42;46.33
6393;BME280;3229;42.674;23.282;2023-05-22T11:38:42;94444.44;;;26.20;47.03
6393;BME280;3229;42.674;23.282;2023-05-22T11:41:09;94447.47;;;25.95;47.73
6393;BME280;3229;42.674;23.282;2023-05-22T11:43:41;94457.28;;;25.71;48.34
6393;BME280;3229;42.674;23.282;2023-05-22T11:46:08;94437.03;;;25.49;48.90
6393;BME280;3229;42.674;23.282;2023-05-22T11:48:39;94443.19;;;25.26;48.86
6393;BME280;3229;42.674;23.282;2023-05-22T11:51:06;94447.69;;;25.14;49.28
6393;BME280;3229;42.674;23.282;2023-05-22T11:53:34;94455.63;;;25.08;49.08
6393;BME280;3229;42.674;23.282;2023-05-22T11:56:02;94453.38;;;24.99;49.10
6393;BME280;3229;42.674;23.282;2023-05-22T11:58:30;94447.50;;;24.92;49.59
6393;BME280;3229;42.674;23.282;2023-05-22T12:00:59;94450.34;;;24.91;49.46
6393;BME280;3229;42.674;23.282;2023-05-22T12:03:27;94450.56;;;24.89;49.87
6393;BME280;3229;42.674;23.282;2023-05-22T12:05:54;94446.38;;;24.88;49.67
6393;BME280;3229;42.674;23.282;2023-05-22T12:08:22;94437.94;;;24.86;49.83
6393;BME280;3229;42.674;23.282;2023-05-22T12:10:49;94438.75;;;24.87;49.71
6393;BME280;3229;42.674;23.282;2023-05-22T12:13:22;94416.53;;;24.61;49.94
6393;BME280;3229;42.674;23.282;2023-05-22T12:15:49;94456.41;;;24.80;49.88
6393;BME280;3229;42.674;23.282;2023-05-22T12:18:18;94445.28;;;24.72;50.01
6393;BME280;3229;42.674;23.282;2023-05-22T12:20:45;94443.59;;;24.66;50.04
6393;BME280;3229;42.674;23.282;2023-05-22T12:23:19;94441.69;;;24.62;50.50
6393;BME280;3229;42.674;23.282;2023-05-22T12:25:46;94424.63;;;24.59;50.39
6393;BME280;3229;42.674;23.282;2023-05-22T12:28:13;94428.81;;;24.60;50.63
6393;BME280;3229;42.674;23.282;2023-05-22T12:30:40;94406.66;;;24.51;50.75
6393;BME280;3229;42.674;23.282;2023-05-22T12:33:11;94419.56;;;24.69;50.46
6393;BME280;3229;42.674;23.282;2023-05-22T12:35:40;94414.78;;;24.78;50.73
6393;BME280;3229;42.674;23.282;2023-05-22T12:38:07;94404.31;;;24.78;50.52
6393;BME280;3229;42.674;23.282;2023-05-22T12:40:37;94417.59;;;24.88;50.19
6393;BME280;3229;42.674;23.282;2023-05-22T12:43:05;94404.97;;;24.85;50.53
6393;BME280;3229;42.674;23.282;2023-05-22T12:45:32;94415.53;;;24.90;50.46
6393;BME280;3229;42.674;23.282;2023-05-22T12:47:59;94410.09;;;24.92;50.58
6393;BME280;3229;42.674;23.282;2023-05-22T12:50:26;94401.91;;;24.88;50.74
6393;BME280;3229;42.674;23.282;2023-05-22T12:52:54;94405.16;;;24.95;50.69
6393;BME280;3229;42.674;23.282;2023-05-22T12:55:21;94409.38;;;24.96;50.58
6393;BME280;3229;42.674;23.282;2023-05-22T12:57:49;94409.84;;;24.93;50.76
6393;BME280;3229;42.674;23.282;2023-05-22T13:00:16;94415.53;;;24.90;50.70
6393;BME280;3229;42.674;23.282;2023-05-22T13:02:43;94410.53;;;24.89;50.77
6393;BME280;3229;42.674;23.282;2023-05-22T13:05:11;94413.16;;;24.89;50.76
6393;BME280;3229;42.674;23.282;2023-05-22T13:07:37;94408.72;;;24.89;50.46
6393;BME280;3229;42.674;23.282;2023-05-22T13:10:07;94410.25;;;25.02;50.22
6393;BME280;3229;42.674;23.282;2023-05-22T13:12:34;94399.00;;;25.13;50.61
6393;BME280;3229;42.674;23.282;2023-05-22T13:15:01;94395.19;;;25.21;50.20
6393;BME280;3229;42.674;23.282;2023-05-22T13:17:27;94391.84;;;25.25;50.01
6393;BME280;3229;42.674;23.282;2023-05-22T13:19:55;94352.78;;;25.07;50.00